sensor_id;sensor_type;location;lat;lon;timestamp;pressure;altitude;pressure_sealevel;temperature;humidity
28701;BME280;15877;52.344;16.790;2023-07-31T00:01:15;100194.07;;;21.01;72.16
28701;BME280;15877;52.344;16.790;2023-07-31T00:03:47;100192.52;;;20.99;72.20
28701;BME280;15877;52.344;16.790;2023-07-31T00:06:20;100187.44;;;20.98;72.00
28701;BME280;15877;52.344;16.790;2023-07-31T00:08:55;100187.56;;;21.00;71.22
28701;BME280;15877;52.344;16.790;2023-07-31T00:11:28;100191.74;;;20.97;71.31
28701;BME280;15877;52.344;16.790;2023-07-31T00:14:00;100194.72;;;20.93;71.26
28701;BME280;15877;52.344;16.790;2023-07-31T00:16:32;100193.56;;;20.88;71.48
28701;BME280;15877;52.344;16.790;2023-07-31T00:19:05;100194.02;;;20.82;71.68
28701;BME280;15877;52.344;16.790;2023-07-31T00:21:45;100190.64;;;20.78;71.73
28701;BME280;15877;52.344;16.790;2023-07-31T00:24:17;100189.38;;;20.73;71.80
28701;BME280;15877;52.344;16.790;2023-07-31T00:26:49;100185.27;;;20.70;71.71
28701;BME280;15877;52.344;16.790;2023-07-31T00:29:23;100186.30;;;20.63;71.79
28701;BME280;15877;52.344;16.790;2023-07-31T00:31:56;100190.96;;;20.61;71.74
28701;BME280;15877;52.344;16.790;2023-07-31T00:34:28;100185.55;;;20.61;71.53
28701;BME280;15877;52.344;16.790;2023-07-31T00:37:00;100183.62;;;20.57;71.12
28701;BME280;15877;52.344;16.790;2023-07-31T00:39:33;100186.60;;;20.54;71.04
28701;BME280;15877;52.344;16.790;2023-07-31T00:42:07;100186.90;;;20.48;71.25
28701;BME280;15877;52.344;16.790;2023-07-31T00:44:39;100186.41;;;20.44;71.37
28701;BME280;15877;52.344;16.790;2023-07-31T00:47:12;100185.67;;;20.42;70.95
28701;BME280;15877;52.344;16.790;2023-07-31T00:49:45;100189.64;;;20.37;71.33
28701;BME280;15877;52.344;16.790;2023-07-31T00:52:18;100188.46;;;20.32;71.44
28701;BME280;15877;52.344;16.790;2023-07-31T00:54:51;100187.13;;;20.30;71.78
28701;BME280;15877;52.344;16.790;2023-07-31T00:57:26;100172.19;;;20.20;71.63
28701;BME280;15877;52.344;16.790;2023-07-31T00:59:59;100186.02;;;20.26;71.58
28701;BME280;15877;52.344;16.790;2023-07-31T01:02:31;100181.95;;;20.24;71.56
28701;BME280;15877;52.344;16.790;2023-07-31T01:05:04;100169.04;;;20.13;71.53
28701;BME280;15877;52.344;16.790;2023-07-31T01:07:45;100176.13;;;20.21;71.31
28701;BME280;15877;52.344;16.790;2023-07-31T01:10:23;100181.56;;;20.15;71.36
28701;BME280;15877;52.344;16.790;2023-07-31T01:12:57;100181.48;;;20.11;71.31
28701;BME280;15877;52.344;16.790;2023-07-31T01:15:31;100185.77;;;20.09;71.52
28701;BME280;15877;52.344;16.790;2023-07-31T01:18:03;100185.41;;;20.07;71.59
28701;BME280;15877;52.344;16.790;2023-07-31T01:20:37;100186.19;;;20.05;71.85
28701;BME280;15877;52.344;16.790;2023-07-31T01:23:38;100190.59;;;20.03;72.03
28701;BME280;15877;52.344;16.790;2023-07-31T01:26:21;100191.38;;;19.99;72.09
28701;BME280;15877;52.344;16.790;2023-07-31T01:29:01;100186.77;;;19.96;71.98
28701;BME280;15877;52.344;16.790;2023-07-31T01:31:37;100185.34;;;19.99;72.05
28701;BME280;15877;52.344;16.790;2023-07-31T01:34:13;100179.67;;;20.00;72.13
28701;BME280;15877;52.344;16.790;2023-07-31T01:36:48;100164.74;;;19.93;71.78
28701;BME280;15877;52.344;16.790;2023-07-31T01:39:25;100173.99;;;19.98;71.91
28701;BME280;15877;52.344;16.790;2023-07-31T01:41:57;100177.89;;;19.97;71.93
28701;BME280;15877;52.344;16.790;2023-07-31T01:44:29;100154.70;;;19.80;71.74
28701;BME280;15877;52.344;16.790;2023-07-31T01:47:03;100181.80;;;19.95;71.92
28701;BME280;15877;52.344;16.790;2023-07-31T01:49:36;100180.07;;;19.93;72.38
28701;BME280;15877;52.344;16.790;2023-07-31T01:52:11;100177.09;;;19.92;72.32
28701;BME280;15877;52.344;16.790;2023-07-31T01:54:42;100180.14;;;19.93;72.30
28701;BME280;15877;52.344;16.790;2023-07-31T01:57:14;100179.92;;;19.93;72.26
28701;BME280;15877;52.344;16.790;2023-07-31T01:59:47;100178.08;;;19.92;72.31
28701;BME280;15877;52.344;16.790;2023-07-31T02:02:20;100180.16;;;19.92;72.30
28701;BME280;15877;52.344;16.790;2023-07-31T02:04:55;100179.08;;;19.90;72.14
28701;BME280;15877;52.344;16.790;2023-07-31T02:07:27;100173.39;;;19.89;72.09
28701;BME280;15877;52.344;16.790;2023-07-31T02:09:59;100169.89;;;19.86;72.44
28701;BME280;15877;52.344;16.790;2023-07-31T02:12:32;100175.02;;;19.83;72.57
28701;BME280;15877;52.344;16.790;2023-07-31T02:15:06;100170.86;;;19.82;72.18
28701;BME280;15877;52.344;16.790;2023-07-31T02:17:40;100175.05;;;19.78;72.18
28701;BME280;15877;52.344;16.790;2023-07-31T02:20:13;100160.89;;;19.69;72.28
28701;BME280;15877;52.344;16.790;2023-07-31T02:22:45;100176.61;;;19.76;72.02
28701;BME280;15877;52.344;16.790;2023-07-31T02:25:18;100177.63;;;19.74;71.95
28701;BME280;15877;52.344;16.790;2023-07-31T02:27:50;100178.95;;;19.72;71.95
28701;BME280;15877;52.344;16.790;2023-07-31T02:30:22;100181.14;;;19.71;72.17
28701;BME280;15877;52.344;16.790;2023-07-31T02:32:58;100180.17;;;19.67;72.18
28701;BME280;15877;52.344;16.790;2023-07-31T02:35:30;100176.91;;;19.65;72.33
28701;BME280;15877;52.344;16.790;2023-07-31T02:38:03;100163.00;;;19.60;72.39
28701;BME280;15877;52.344;16.790;2023-07-31T02:40:36;100171.86;;;19.64;72.36
28701;BME280;15877;52.344;16.790;2023-07-31T02:43:08;100169.52;;;19.56;72.82
28701;BME280;15877;52.344;16.790;2023-07-31T02:45:41;100164.08;;;19.54;72.89
28701;BME280;15877;52.344;16.790;2023-07-31T02:48:14;100167.89;;;19.48;72.92
28701;BME280;15877;52.344;16.790;2023-07-31T02:50:48;100169.42;;;19.43;73.11
28701;BME280;15877;52.344;16.790;2023-07-31T02:53:28;100172.14;;;19.45;73.32
28701;BME280;15877;52.344;16.790;2023-07-31T02:56:01;100173.00;;;19.41;73.11
28701;BME280;15877;52.344;16.790;2023-07-31T02:58:34;100172.20;;;19.45;72.83
28701;BME280;15877;52.344;16.790;2023-07-31T03:01:07;100174.14;;;19.39;72.86
28701;BME280;15877;52.344;16.790;2023-07-31T03:03:42;100176.45;;;19.37;72.70
28701;BME280;15877;52.344;16.790;2023-07-31T03:06:15;100170.13;;;19.25;72.73
28701;BME280;15877;52.344;16.790;2023-07-31T03:08:48;100182.05;;;19.34;72.62
28701;BME280;15877;52.344;16.790;2023-07-31T03:11:20;100182.76;;;19.31;72.67
28701;BME280;15877;52.344;16.790;2023-07-31T03:13:53;100181.71;;;19.25;72.87
28701;BME280;15877;52.344;16.790;2023-07-31T03:16:25;100171.84;;;19.23;72.92
28701;BME280;15877;52.344;16.790;2023-07-31T03:18:59;100164.70;;;19.21;72.76
28701;BME280;15877;52.344;16.790;2023-07-31T03:21:32;100164.48;;;19.21;73.05
28701;BME280;15877;52.344;16.790;2023-07-31T03:24:04;100164.09;;;19.20;72.96
28701;BME280;15877;52.344;16.790;2023-07-31T03:26:37;100166.56;;;19.17;73.18
28701;BME280;15877;52.344;16.790;2023-07-31T03:29:12;100156.85;;;19.11;73.14
28701;BME280;15877;52.344;16.790;2023-07-31T03:31:45;100163.57;;;19.17;73.23
28701;BME280;15877;52.344;16.790;2023-07-31T03:34:17;100168.36;;;19.15;73.07
28701;BME280;15877;52.344;16.790;2023-07-31T03:36:50;100165.77;;;19.11;73.32
28701;BME280;15877;52.344;16.790;2023-07-31T03:39:23;100161.30;;;19.14;73.60
28701;BME280;15877;52.344;16.790;2023-07-31T03:41:56;100165.55;;;19.14;73.63
28701;BME280;15877;52.344;16.790;2023-07-31T03:44:29;100147.27;;;18.97;74.25
28701;BME280;15877;52.344;16.790;2023-07-31T03:47:02;100174.52;;;19.12;74.36
28701;BME280;15877;52.344;16.790;2023-07-31T03:49:34;100172.57;;;19.13;74.54
28701;BME280;15877;52.344;16.790;2023-07-31T03:52:08;100171.40;;;19.16;74.67
28701;BME280;15877;52.344;16.790;2023-07-31T03:54:40;100168.86;;;19.19;74.79
28701;BME280;15877;52.344;16.790;2023-07-31T03:57:14;100165.86;;;19.20;74.70
28701;BME280;15877;52.344;16.790;2023-07-31T03:59:47;100175.41;;;19.21;74.67
28701;BME280;15877;52.344;16.790;2023-07-31T04:02:19;100171.66;;;19.20;75.28
28701;BME280;15877;52.344;16.790;2023-07-31T04:04:57;100177.35;;;19.21;75.39
28701;BME280;15877;52.344;16.790;2023-07-31T04:07:30;100178.30;;;19.17;75.68
28701;BME280;15877;52.344;16.790;2023-07-31T04:10:02;100176.42;;;19.18;75.91
28701;BME280;15877;52.344;16.790;2023-07-31T04:12:35;100178.64;;;19.16;76.08
28701;BME280;15877;52.344;16.790;2023-07-31T04:15:09;100172.31;;;19.10;75.97
28701;BME280;15877;52.344;16.790;2023-07-31T04:17:42;100176.89;;;19.20;76.02
28701;BME280;15877;52.344;16.790;2023-07-31T04:20:14;100170.16;;;19.22;75.98
28701;BME280;15877;52.344;16.790;2023-07-31T04:22:47;100174.51;;;19.27;75.57
28701;BME280;15877;52.344;16.790;2023-07-31T04:25:20;100168.16;;;19.27;75.81
28701;BME280;15877;52.344;16.790;2023-07-31T04:27:55;100165.66;;;19.23;76.25
28701;BME280;15877;52.344;16.790;2023-07-31T04:30:28;100161.80;;;19.14;76.46
28701;BME280;15877;52.344;16.790;2023-07-31T04:33:01;100172.55;;;19.24;76.34
28701;BME280;15877;52.344;16.790;2023-07-31T04:35:33;100173.08;;;19.26;76.50
28701;BME280;15877;52.344;16.790;2023-07-31T04:38:06;100172.09;;;19.28;76.45
28701;BME280;15877;52.344;16.790;2023-07-31T04:40:40;100178.34;;;19.29;76.71
28701;BME280;15877;52.344;16.790;2023-07-31T04:43:12;100176.91;;;19.29;76.64
28701;BME280;15877;52.344;16.790;2023-07-31T04:45:46;100177.42;;;19.32;76.95
28701;BME280;15877;52.344;16.790;2023-07-31T04:48:20;100176.70;;;19.33;77.01
28701;BME280;15877;52.344;16.790;2023-07-31T04:50:53;100175.38;;;19.34;76.95
28701;BME280;15877;52.344;16.790;2023-07-31T04:53:25;100171.29;;;19.33;77.22
28701;BME280;15877;52.344;16.790;2023-07-31T04:55:58;100171.68;;;19.38;76.83
28701;BME280;15877;52.344;16.790;2023-07-31T04:58:30;100175.77;;;19.44;76.42
28701;BME280;15877;52.344;16.790;2023-07-31T05:01:03;100178.02;;;19.39;76.50
28701;BME280;15877;52.344;16.790;2023-07-31T05:03:35;100175.41;;;19.41;76.68
28701;BME280;15877;52.344;16.790;2023-07-31T05:06:08;100175.80;;;19.46;76.17
28701;BME280;15877;52.344;16.790;2023-07-31T05:08:40;100168.94;;;19.44;76.57
28701;BME280;15877;52.344;16.790;2023-07-31T05:11:13;100164.63;;;19.45;76.45
28701;BME280;15877;52.344;16.790;2023-07-31T05:13:45;100165.34;;;19.33;77.31
28701;BME280;15877;52.344;16.790;2023-07-31T05:16:17;100160.18;;;19.42;77.23
28701;BME280;15877;52.344;16.790;2023-07-31T05:18:50;100161.13;;;19.48;77.33
28701;BME280;15877;52.344;16.790;2023-07-31T05:21:22;100156.34;;;19.41;78.16
28701;BME280;15877;52.344;16.790;2023-07-31T05:23:55;100159.73;;;19.40;78.12
28701;BME280;15877;52.344;16.790;2023-07-31T05:26:28;100155.46;;;19.41;78.74
28701;BME280;15877;52.344;16.790;2023-07-31T05:29:00;100153.02;;;19.42;78.82
28701;BME280;15877;52.344;16.790;2023-07-31T05:31:33;100148.00;;;19.39;79.03
28701;BME280;15877;52.344;16.790;2023-07-31T05:34:06;100144.90;;;19.50;78.58
28701;BME280;15877;52.344;16.790;2023-07-31T05:36:40;100144.48;;;19.65;77.87
28701;BME280;15877;52.344;16.790;2023-07-31T05:39:13;100142.52;;;19.61;78.05
28701;BME280;15877;52.344;16.790;2023-07-31T05:41:46;100141.16;;;19.64;78.89
28701;BME280;15877;52.344;16.790;2023-07-31T05:44:19;100137.38;;;19.64;78.64
28701;BME280;15877;52.344;16.790;2023-07-31T05:46:52;100138.42;;;19.65;78.73
28701;BME280;15877;52.344;16.790;2023-07-31T05:49:27;100135.04;;;19.61;79.07
28701;BME280;15877;52.344;16.790;2023-07-31T05:52:01;100134.09;;;19.80;78.83
28701;BME280;15877;52.344;16.790;2023-07-31T05:54:33;100135.40;;;19.99;77.73
28701;BME280;15877;52.344;16.790;2023-07-31T05:57:06;100133.27;;;19.96;77.71
28701;BME280;15877;52.344;16.790;2023-07-31T05:59:39;100135.23;;;19.90;76.93
28701;BME280;15877;52.344;16.790;2023-07-31T06:02:11;100122.00;;;19.84;76.85
28701;BME280;15877;52.344;16.790;2023-07-31T06:04:44;100136.55;;;19.90;77.46
28701;BME280;15877;52.344;16.790;2023-07-31T06:07:17;100136.17;;;20.04;76.77
28701;BME280;15877;52.344;16.790;2023-07-31T06:09:50;100132.66;;;19.94;76.59
28701;BME280;15877;52.344;16.790;2023-07-31T06:12:22;100129.98;;;20.07;77.03
28701;BME280;15877;52.344;16.790;2023-07-31T06:14:55;100109.42;;;20.12;75.78
28701;BME280;15877;52.344;16.790;2023-07-31T06:17:27;100111.55;;;20.15;75.95
28701;BME280;15877;52.344;16.790;2023-07-31T06:20:00;100126.05;;;20.26;75.48
28701;BME280;15877;52.344;16.790;2023-07-31T06:22:34;100123.58;;;20.32;74.56
28701;BME280;15877;52.344;16.790;2023-07-31T06:25:07;100122.34;;;20.21;75.46
28701;BME280;15877;52.344;16.790;2023-07-31T06:27:43;100121.77;;;20.27;75.11
28701;BME280;15877;52.344;16.790;2023-07-31T06:30:15;100121.59;;;20.24;76.03
28701;BME280;15877;52.344;16.790;2023-07-31T06:32:47;100122.73;;;20.37;75.30
28701;BME280;15877;52.344;16.790;2023-07-31T06:35:20;100125.22;;;20.38;74.52
28701;BME280;15877;52.344;16.790;2023-07-31T06:37:53;100125.41;;;20.29;75.41
28701;BME280;15877;52.344;16.790;2023-07-31T06:40:25;100128.86;;;20.47;74.76
28701;BME280;15877;52.344;16.790;2023-07-31T06:42:57;100127.52;;;20.46;74.46
28701;BME280;15877;52.344;16.790;2023-07-31T06:45:29;100130.02;;;20.38;74.78
28701;BME280;15877;52.344;16.790;2023-07-31T06:48:02;100123.36;;;20.31;73.76
28701;BME280;15877;52.344;16.790;2023-07-31T06:50:35;100131.61;;;20.30;73.30
28701;BME280;15877;52.344;16.790;2023-07-31T06:53:08;100128.91;;;20.34;72.96
28701;BME280;15877;52.344;16.790;2023-07-31T06:55:40;100124.88;;;20.45;73.10
28701;BME280;15877;52.344;16.790;2023-07-31T06:58:12;100124.95;;;20.42;73.04
28701;BME280;15877;52.344;16.790;2023-07-31T07:00:44;100123.77;;;20.44;72.95
28701;BME280;15877;52.344;16.790;2023-07-31T07:03:18;100122.09;;;20.48;72.60
28701;BME280;15877;52.344;16.790;2023-07-31T07:05:51;100124.48;;;20.49;72.20
28701;BME280;15877;52.344;16.790;2023-07-31T07:08:24;100125.87;;;20.40;72.35
28701;BME280;15877;52.344;16.790;2023-07-31T07:10:57;100127.33;;;20.47;72.60
28701;BME280;15877;52.344;16.790;2023-07-31T07:13:29;100129.14;;;20.42;72.61
28701;BME280;15877;52.344;16.790;2023-07-31T07:16:02;100128.98;;;20.43;71.58
28701;BME280;15877;52.344;16.790;2023-07-31T07:18:34;100126.82;;;20.52;71.03
28701;BME280;15877;52.344;16.790;2023-07-31T07:21:11;100126.74;;;20.48;70.75
28701;BME280;15877;52.344;16.790;2023-07-31T07:23:46;100129.30;;;20.35;70.23
28701;BME280;15877;52.344;16.790;2023-07-31T07:26:18;100131.18;;;20.27;71.40
28701;BME280;15877;52.344;16.790;2023-07-31T07:28:51;100133.44;;;20.31;70.77
28701;BME280;15877;52.344;16.790;2023-07-31T07:31:23;100135.28;;;20.49;71.03
28701;BME280;15877;52.344;16.790;2023-07-31T07:33:55;100134.83;;;20.61;70.23
28701;BME280;15877;52.344;16.790;2023-07-31T07:36:29;100142.95;;;20.66;69.37
28701;BME280;15877;52.344;16.790;2023-07-31T07:39:01;100140.23;;;20.74;68.90
28701;BME280;15877;52.344;16.790;2023-07-31T07:41:33;100142.16;;;20.58;68.46
28701;BME280;15877;52.344;16.790;2023-07-31T07:44:07;100138.34;;;20.34;69.48
28701;BME280;15877;52.344;16.790;2023-07-31T07:46:39;100135.87;;;20.44;69.63
28701;BME280;15877;52.344;16.790;2023-07-31T07:49:12;100139.76;;;20.36;69.85
28701;BME280;15877;52.344;16.790;2023-07-31T07:51:44;100138.83;;;20.51;70.08
28701;BME280;15877;52.344;16.790;2023-07-31T07:54:16;100128.65;;;20.67;69.93
28701;BME280;15877;52.344;16.790;2023-07-31T07:56:49;100140.01;;;20.74;70.17
28701;BME280;15877;52.344;16.790;2023-07-31T07:59:21;100139.49;;;20.75;69.96
28701;BME280;15877;52.344;16.790;2023-07-31T08:01:53;100140.99;;;20.80;69.29
28701;BME280;15877;52.344;16.790;2023-07-31T08:04:26;100144.99;;;20.71;70.30
28701;BME280;15877;52.344;16.790;2023-07-31T08:06:58;100144.11;;;20.68;69.73
28701;BME280;15877;52.344;16.790;2023-07-31T08:09:31;100146.81;;;20.41;70.47
28701;BME280;15877;52.344;16.790;2023-07-31T08:12:04;100143.35;;;20.41;71.09
28701;BME280;15877;52.344;16.790;2023-07-31T08:14:36;100143.80;;;20.49;71.80
28701;BME280;15877;52.344;16.790;2023-07-31T08:17:08;100140.95;;;20.68;72.19
28701;BME280;15877;52.344;16.790;2023-07-31T08:19:41;100142.35;;;20.50;72.11
28701;BME280;15877;52.344;16.790;2023-07-31T08:22:13;100138.72;;;20.43;71.74
28701;BME280;15877;52.344;16.790;2023-07-31T08:24:45;100134.24;;;20.41;71.68
28701;BME280;15877;52.344;16.790;2023-07-31T08:27:17;100143.06;;;20.54;70.90
28701;BME280;15877;52.344;16.790;2023-07-31T08:29:50;100142.61;;;20.46;71.18
28701;BME280;15877;52.344;16.790;2023-07-31T08:32:23;100140.73;;;20.53;71.39
28701;BME280;15877;52.344;16.790;2023-07-31T08:34:56;100143.60;;;20.66;70.62
28701;BME280;15877;52.344;16.790;2023-07-31T08:37:28;100142.79;;;20.52;70.86
28701;BME280;15877;52.344;16.790;2023-07-31T08:40:01;100142.13;;;20.41;70.93
28701;BME280;15877;52.344;16.790;2023-07-31T08:42:33;100138.70;;;20.51;71.76
28701;BME280;15877;52.344;16.790;2023-07-31T08:45:07;100140.38;;;20.78;70.79
28701;BME280;15877;52.344;16.790;2023-07-31T08:47:40;100123.00;;;20.60;70.56
28701;BME280;15877;52.344;16.790;2023-07-31T08:50:13;100130.21;;;20.66;71.01
28701;BME280;15877;52.344;16.790;2023-07-31T08:52:47;100128.61;;;20.72;70.54
28701;BME280;15877;52.344;16.790;2023-07-31T08:55:20;100121.60;;;20.84;70.27
28701;BME280;15877;52.344;16.790;2023-07-31T08:57:56;100123.73;;;20.83;69.54
28701;BME280;15877;52.344;16.790;2023-07-31T09:00:30;100114.45;;;20.77;69.06
28701;BME280;15877;52.344;16.790;2023-07-31T09:03:07;100123.80;;;20.84;69.74
28701;BME280;15877;52.344;16.790;2023-07-31T09:05:43;100124.16;;;20.79;69.68
28701;BME280;15877;52.344;16.790;2023-07-31T09:08:19;100126.36;;;20.94;68.92
28701;BME280;15877;52.344;16.790;2023-07-31T09:10:52;100121.89;;;20.96;69.13
28701;BME280;15877;52.344;16.790;2023-07-31T09:13:26;100112.08;;;20.78;69.33
28701;BME280;15877;52.344;16.790;2023-07-31T09:15:59;100125.08;;;20.71;69.03
28701;BME280;15877;52.344;16.790;2023-07-31T09:18:31;100124.41;;;20.79;68.91
28701;BME280;15877;52.344;16.790;2023-07-31T09:21:05;100127.97;;;20.58;68.90
28701;BME280;15877;52.344;16.790;2023-07-31T09:23:44;100125.25;;;20.57;69.45
28701;BME280;15877;52.344;16.790;2023-07-31T09:26:32;100122.08;;;20.44;70.00
28701;BME280;15877;52.344;16.790;2023-07-31T09:29:06;100123.69;;;20.45;70.33
28701;BME280;15877;52.344;16.790;2023-07-31T09:31:43;100126.34;;;20.34;70.56
28701;BME280;15877;52.344;16.790;2023-07-31T09:34:16;100126.66;;;20.31;71.82
28701;BME280;15877;52.344;16.790;2023-07-31T09:36:49;100136.19;;;20.22;72.79
28701;BME280;15877;52.344;16.790;2023-07-31T09:39:24;100139.13;;;20.01;75.03
28701;BME280;15877;52.344;16.790;2023-07-31T09:41:57;100126.31;;;19.85;76.94
28701;BME280;15877;52.344;16.790;2023-07-31T09:44:40;100137.67;;;20.10;75.83
28701;BME280;15877;52.344;16.790;2023-07-31T09:47:23;100134.84;;;19.87;76.84
28701;BME280;15877;52.344;16.790;2023-07-31T09:49:56;100139.04;;;20.02;77.30
28701;BME280;15877;52.344;16.790;2023-07-31T09:52:29;100137.95;;;20.16;77.16
28701;BME280;15877;52.344;16.790;2023-07-31T09:55:01;100136.56;;;20.08;78.25
28701;BME280;15877;52.344;16.790;2023-07-31T09:57:34;100118.48;;;19.91;80.51
28701;BME280;15877;52.344;16.790;2023-07-31T10:00:09;100130.43;;;20.08;80.82
28701;BME280;15877;52.344;16.790;2023-07-31T10:02:43;100124.93;;;20.25;79.02
28701;BME280;15877;52.344;16.790;2023-07-31T10:05:15;100120.39;;;20.37;78.27
28701;BME280;15877;52.344;16.790;2023-07-31T10:07:53;100117.92;;;20.42;78.31
28701;BME280;15877;52.344;16.790;2023-07-31T10:10:26;100118.55;;;20.47;77.79
28701;BME280;15877;52.344;16.790;2023-07-31T10:12:59;100111.33;;;20.46;77.35
28701;BME280;15877;52.344;16.790;2023-07-31T10:15:33;100110.73;;;20.33;77.27
28701;BME280;15877;52.344;16.790;2023-07-31T10:18:07;100108.70;;;20.15;78.02
28701;BME280;15877;52.344;16.790;2023-07-31T10:20:39;100102.77;;;20.22;78.39
28701;BME280;15877;52.344;16.790;2023-07-31T10:23:12;100101.94;;;20.29;77.35
28701;BME280;15877;52.344;16.790;2023-07-31T10:25:45;100101.36;;;20.33;77.87
28701;BME280;15877;52.344;16.790;2023-07-31T10:28:18;100104.16;;;20.25;77.92
28701;BME280;15877;52.344;16.790;2023-07-31T10:30:51;100096.48;;;20.30;79.03
28701;BME280;15877;52.344;16.790;2023-07-31T10:33:24;100096.97;;;20.25;79.01
28701;BME280;15877;52.344;16.790;2023-07-31T10:36:16;100094.46;;;20.18;79.65
28701;BME280;15877;52.344;16.790;2023-07-31T10:38:49;100090.72;;;19.93;80.76
28701;BME280;15877;52.344;16.790;2023-07-31T10:41:29;100092.54;;;19.99;81.03
28701;BME280;15877;52.344;16.790;2023-07-31T10:44:03;100088.23;;;19.93;81.65
28701;BME280;15877;52.344;16.790;2023-07-31T10:46:37;100087.73;;;20.20;81.14
28701;BME280;15877;52.344;16.790;2023-07-31T10:49:10;100087.29;;;20.33;81.25
28701;BME280;15877;52.344;16.790;2023-07-31T10:51:54;100084.70;;;20.14;82.86
28701;BME280;15877;52.344;16.790;2023-07-31T10:54:28;100084.94;;;20.14;83.24
28701;BME280;15877;52.344;16.790;2023-07-31T10:57:00;100078.84;;;19.95;84.59
28701;BME280;15877;52.344;16.790;2023-07-31T10:59:35;100073.62;;;19.94;86.08
28701;BME280;15877;52.344;16.790;2023-07-31T11:02:25;100071.38;;;20.16;85.03
28701;BME280;15877;52.344;16.790;2023-07-31T11:05:11;100052.34;;;20.24;83.35
28701;BME280;15877;52.344;16.790;2023-07-31T11:07:49;100069.65;;;20.35;82.91
28701;BME280;15877;52.344;16.790;2023-07-31T11:10:24;100066.67;;;20.38;83.22
28701;BME280;15877;52.344;16.790;2023-07-31T11:12:55;100063.50;;;20.36;83.74
28701;BME280;15877;52.344;16.790;2023-07-31T11:15:29;100050.59;;;20.33;84.22
28701;BME280;15877;52.344;16.790;2023-07-31T11:18:01;100062.65;;;20.20;85.19
28701;BME280;15877;52.344;16.790;2023-07-31T11:20:37;100056.86;;;20.12;85.62
28701;BME280;15877;52.344;16.790;2023-07-31T11:23:10;100057.90;;;20.10;85.70
28701;BME280;15877;52.344;16.790;2023-07-31T11:25:43;100056.81;;;20.33;84.75
28701;BME280;15877;52.344;16.790;2023-07-31T11:28:17;100058.09;;;20.43;83.09
28701;BME280;15877;52.344;16.790;2023-07-31T11:30:50;100039.83;;;20.51;82.59
28701;BME280;15877;52.344;16.790;2023-07-31T11:33:23;100049.02;;;20.52;82.93
28701;BME280;15877;52.344;16.790;2023-07-31T11:35:55;100043.73;;;20.23;82.57
28701;BME280;15877;52.344;16.790;2023-07-31T11:38:29;100044.56;;;20.22;83.12
28701;BME280;15877;52.344;16.790;2023-07-31T11:41:03;100043.48;;;20.27;83.21
28701;BME280;15877;52.344;16.790;2023-07-31T11:43:36;100044.67;;;20.22;83.54
28701;BME280;15877;52.344;16.790;2023-07-31T11:46:09;100042.02;;;20.20;84.34
28701;BME280;15877;52.344;16.790;2023-07-31T11:48:41;100041.30;;;20.20;83.19
28701;BME280;15877;52.344;16.790;2023-07-31T11:51:14;100029.31;;;20.26;83.20
28701;BME280;15877;52.344;16.790;2023-07-31T11:53:52;100025.48;;;20.28;83.64
28701;BME280;15877;52.344;16.790;2023-07-31T11:56:25;100026.45;;;20.25;83.13
28701;BME280;15877;52.344;16.790;2023-07-31T11:58:59;100025.77;;;20.20;83.07
28701;BME280;15877;52.344;16.790;2023-07-31T12:01:35;100026.18;;;20.33;82.47
28701;BME280;15877;52.344;16.790;2023-07-31T12:04:08;100027.77;;;20.19;82.22
28701;BME280;15877;52.344;16.790;2023-07-31T12:06:41;100023.78;;;20.29;82.04
28701;BME280;15877;52.344;16.790;2023-07-31T12:09:15;100022.87;;;20.29;81.89
28701;BME280;15877;52.344;16.790;2023-07-31T12:11:48;100024.74;;;20.32;82.80
28701;BME280;15877;52.344;16.790;2023-07-31T12:14:25;100023.48;;;20.41;82.00
28701;BME280;15877;52.344;16.790;2023-07-31T12:17:00;100029.17;;;20.42;82.50
28701;BME280;15877;52.344;16.790;2023-07-31T12:19:33;100025.02;;;20.60;82.26
28701;BME280;15877;52.344;16.790;2023-07-31T12:22:12;100017.95;;;20.50;82.84
28701;BME280;15877;52.344;16.790;2023-07-31T12:24:45;100012.87;;;20.59;82.10
28701;BME280;15877;52.344;16.790;2023-07-31T12:27:18;100009.67;;;20.71;79.99
28701;BME280;15877;52.344;16.790;2023-07-31T12:29:53;100011.61;;;20.86;79.13
28701;BME280;15877;52.344;16.790;2023-07-31T12:32:25;100013.46;;;20.86;78.02
28701;BME280;15877;52.344;16.790;2023-07-31T12:35:01;100005.33;;;20.94;77.71
28701;BME280;15877;52.344;16.790;2023-07-31T12:37:39;100002.88;;;21.08;78.14
28701;BME280;15877;52.344;16.790;2023-07-31T12:40:12;100005.03;;;21.06;77.11
28701;BME280;15877;52.344;16.790;2023-07-31T12:42:49;100000.25;;;21.06;76.94
28701;BME280;15877;52.344;16.790;2023-07-31T12:45:22;99996.72;;;21.06;76.25
28701;BME280;15877;52.344;16.790;2023-07-31T12:47:55;99991.08;;;21.11;76.22
28701;BME280;15877;52.344;16.790;2023-07-31T12:50:27;99994.58;;;21.19;75.64
28701;BME280;15877;52.344;16.790;2023-07-31T12:52:59;99993.64;;;21.21;75.48
28701;BME280;15877;52.344;16.790;2023-07-31T12:55:32;99971.59;;;21.24;76.29
28701;BME280;15877;52.344;16.790;2023-07-31T12:58:05;99981.36;;;21.35;75.81
28701;BME280;15877;52.344;16.790;2023-07-31T13:00:37;99973.66;;;21.49;75.57
28701;BME280;15877;52.344;16.790;2023-07-31T13:03:09;99968.61;;;21.43;74.95
28701;BME280;15877;52.344;16.790;2023-07-31T13:05:43;99973.30;;;21.37;75.34
28701;BME280;15877;52.344;16.790;2023-07-31T13:08:15;99966.42;;;21.51;75.53
28701;BME280;15877;52.344;16.790;2023-07-31T13:10:48;99962.50;;;21.53;75.00
28701;BME280;15877;52.344;16.790;2023-07-31T13:13:21;99945.01;;;21.36;74.17